sensor_id;sensor_type;location;lat;lon;timestamp;P1;durP1;ratioP1;P2;durP2;ratioP2
6109;SDS011;3085;49.444;11.054;2024-01-15T00:01:11;28.43;;;12.10;;
6109;SDS011;3085;49.444;11.054;2024-01-15T00:03:38;24.07;;;12.20;;
6109;SDS011;3085;49.444;11.054;2024-01-15T00:06:06;44.20;;;11.47;;
6109;SDS011;3085;49.444;11.054;2024-01-15T00:08:33;34.97;;;11.73;;
6109;SDS011;3085;49.444;11.054;2024-01-15T00:11:00;29.70;;;10.07;;
6109;SDS011;3085;49.444;11.054;2024-01-15T00:13:26;32.90;;;13.03;;
6109;SDS011;3085;49.444;11.054;2024-01-15T00:15:53;18.63;;;8.50;;
6109;SDS011;3085;49.444;11.054;2024-01-15T00:18:21;33.40;;;11.83;;
6109;SDS011;3085;49.444;11.054;2024-01-15T00:20:48;26.50;;;10.23;;
6109;SDS011;3085;49.444;11.054;2024-01-15T00:23:16;37.50;;;11.13;;
6109;SDS011;3085;49.444;11.054;2024-01-15T00:25:42;27.23;;;10.50;;
6109;SDS011;3085;49.444;11.054;2024-01-15T00:28:09;42.83;;;13.80;;
6109;SDS011;3085;49.444;11.054;2024-01-15T00:30:36;40.20;;;9.97;;
6109;SDS011;3085;49.444;11.054;2024-01-15T00:33:03;29.90;;;9.97;;
6109;SDS011;3085;49.444;11.054;2024-01-15T00:35:30;28.63;;;9.97;;
6109;SDS011;3085;49.444;11.054;2024-01-15T00:37:58;29.13;;;10.73;;
6109;SDS011;3085;49.444;11.054;2024-01-15T00:40:26;33.70;;;11.33;;
6109;SDS011;3085;49.444;11.054;2024-01-15T00:42:52;32.37;;;10.57;;
6109;SDS011;3085;49.444;11.054;2024-01-15T00:45:19;28.03;;;9.43;;
6109;SDS011;3085;49.444;11.054;2024-01-15T00:47:46;21.90;;;11.50;;
6109;SDS011;3085;49.444;11.054;2024-01-15T00:50:13;24.13;;;12.60;;
6109;SDS011;3085;49.444;11.054;2024-01-15T00:52:39;36.57;;;13.57;;
6109;SDS011;3085;49.444;11.054;2024-01-15T00:55:07;25.90;;;12.13;;
6109;SDS011;3085;49.444;11.054;2024-01-15T00:57:35;36.37;;;11.47;;
6109;SDS011;3085;49.444;11.054;2024-01-15T01:00:02;36.53;;;11.50;;
6109;SDS011;3085;49.444;11.054;2024-01-15T01:02:29;22.40;;;9.87;;
6109;SDS011;3085;49.444;11.054;2024-01-15T01:04:56;30.77;;;10.57;;
6109;SDS011;3085;49.444;11.054;2024-01-15T01:07:23;20.67;;;8.20;;
6109;SDS011;3085;49.444;11.054;2024-01-15T01:09:49;27.60;;;11.27;;
6109;SDS011;3085;49.444;11.054;2024-01-15T01:12:16;33.67;;;11.30;;
6109;SDS011;3085;49.444;11.054;2024-01-15T01:14:44;26.87;;;9.80;;
6109;SDS011;3085;49.444;11.054;2024-01-15T01:17:11;31.50;;;11.60;;
6109;SDS011;3085;49.444;11.054;2024-01-15T01:19:38;24.20;;;11.13;;
6109;SDS011;3085;49.444;11.054;2024-01-15T01:22:04;33.10;;;12.23;;
6109;SDS011;3085;49.444;11.054;2024-01-15T01:24:31;32.07;;;10.53;;
6109;SDS011;3085;49.444;11.054;2024-01-15T01:26:58;36.53;;;12.03;;
6109;SDS011;3085;49.444;11.054;2024-01-15T01:29:25;36.83;;;11.10;;
6109;SDS011;3085;49.444;11.054;2024-01-15T01:31:53;33.77;;;11.70;;
6109;SDS011;3085;49.444;11.054;2024-01-15T01:34:21;45.03;;;13.50;;
6109;SDS011;3085;49.444;11.054;2024-01-15T01:36:48;23.57;;;11.50;;
6109;SDS011;3085;49.444;11.054;2024-01-15T01:39:14;34.90;;;9.47;;
6109;SDS011;3085;49.444;11.054;2024-01-15T01:41:43;31.33;;;9.70;;
6109;SDS011;3085;49.444;11.054;2024-01-15T01:44:10;33.07;;;13.40;;
6109;SDS011;3085;49.444;11.054;2024-01-15T01:46:37;35.33;;;10.57;;
6109;SDS011;3085;49.444;11.054;2024-01-15T01:49:06;27.83;;;10.00;;
6109;SDS011;3085;49.444;11.054;2024-01-15T01:51:34;29.17;;;10.60;;
6109;SDS011;3085;49.444;11.054;2024-01-15T01:54:02;29.03;;;10.43;;
6109;SDS011;3085;49.444;11.054;2024-01-15T01:56:30;32.83;;;12.70;;
6109;SDS011;3085;49.444;11.054;2024-01-15T01:58:57;24.60;;;8.60;;
6109;SDS011;3085;49.444;11.054;2024-01-15T02:01:24;28.83;;;9.60;;
6109;SDS011;3085;49.444;11.054;2024-01-15T02:03:51;29.43;;;9.20;;
6109;SDS011;3085;49.444;11.054;2024-01-15T02:06:22;21.17;;;7.80;;
6109;SDS011;3085;49.444;11.054;2024-01-15T02:08:49;41.50;;;11.57;;
6109;SDS011;3085;49.444;11.054;2024-01-15T02:11:16;23.57;;;11.17;;
6109;SDS011;3085;49.444;11.054;2024-01-15T02:13:43;31.53;;;9.97;;
6109;SDS011;3085;49.444;11.054;2024-01-15T02:16:10;27.77;;;9.77;;
6109;SDS011;3085;49.444;11.054;2024-01-15T02:18:40;36.47;;;9.07;;
6109;SDS011;3085;49.444;11.054;2024-01-15T02:21:07;21.67;;;8.97;;
6109;SDS011;3085;49.444;11.054;2024-01-15T02:23:35;18.17;;;7.90;;
6109;SDS011;3085;49.444;11.054;2024-01-15T02:26:02;25.57;;;7.43;;
6109;SDS011;3085;49.444;11.054;2024-01-15T02:28:30;35.93;;;10.70;;
6109;SDS011;3085;49.444;11.054;2024-01-15T02:30:58;22.47;;;9.00;;
6109;SDS011;3085;49.444;11.054;2024-01-15T02:33:25;31.53;;;9.50;;
6109;SDS011;3085;49.444;11.054;2024-01-15T02:35:51;16.20;;;6.30;;
6109;SDS011;3085;49.444;11.054;2024-01-15T02:38:18;25.70;;;7.60;;
6109;SDS011;3085;49.444;11.054;2024-01-15T02:40:46;15.90;;;8.17;;
6109;SDS011;3085;49.444;11.054;2024-01-15T02:43:13;20.83;;;7.30;;
6109;SDS011;3085;49.444;11.054;2024-01-15T02:45:40;26.80;;;8.23;;
6109;SDS011;3085;49.444;11.054;2024-01-15T02:48:07;22.60;;;8.57;;
6109;SDS011;3085;49.444;11.054;2024-01-15T02:50:34;17.60;;;9.27;;
6109;SDS011;3085;49.444;11.054;2024-01-15T02:53:01;21.97;;;8.07;;
6109;SDS011;3085;49.444;11.054;2024-01-15T02:55:27;17.97;;;8.10;;
6109;SDS011;3085;49.444;11.054;2024-01-15T02:57:56;17.63;;;7.57;;
6109;SDS011;3085;49.444;11.054;2024-01-15T03:00:23;17.50;;;6.90;;
6109;SDS011;3085;49.444;11.054;2024-01-15T03:02:50;27.53;;;10.27;;
6109;SDS011;3085;49.444;11.054;2024-01-15T03:05:17;45.63;;;8.50;;
6109;SDS011;3085;49.444;11.054;2024-01-15T03:07:45;20.30;;;7.40;;
6109;SDS011;3085;49.444;11.054;2024-01-15T03:10:11;23.33;;;10.40;;
6109;SDS011;3085;49.444;11.054;2024-01-15T03:12:38;27.10;;;10.00;;
6109;SDS011;3085;49.444;11.054;2024-01-15T03:15:07;17.20;;;6.43;;
6109;SDS011;3085;49.444;11.054;2024-01-15T03:17:33;18.10;;;7.53;;
6109;SDS011;3085;49.444;11.054;2024-01-15T03:20:00;15.07;;;7.60;;
6109;SDS011;3085;49.444;11.054;2024-01-15T03:22:28;19.63;;;8.30;;
6109;SDS011;3085;49.444;11.054;2024-01-15T03:24:55;14.17;;;7.27;;
6109;SDS011;3085;49.444;11.054;2024-01-15T03:27:21;15.03;;;6.57;;
6109;SDS011;3085;49.444;11.054;2024-01-15T03:29:48;14.03;;;7.77;;
6109;SDS011;3085;49.444;11.054;2024-01-15T03:32:16;25.77;;;10.37;;
6109;SDS011;3085;49.444;11.054;2024-01-15T03:34:44;25.83;;;9.27;;
6109;SDS011;3085;49.444;11.054;2024-01-15T03:37:12;18.43;;;7.20;;
6109;SDS011;3085;49.444;11.054;2024-01-15T03:39:39;24.20;;;8.30;;
6109;SDS011;3085;49.444;11.054;2024-01-15T03:42:05;20.57;;;9.87;;
6109;SDS011;3085;49.444;11.054;2024-01-15T03:44:32;29.23;;;8.80;;
6109;SDS011;3085;49.444;11.054;2024-01-15T03:46:59;26.93;;;9.23;;
6109;SDS011;3085;49.444;11.054;2024-01-15T03:49:27;14.90;;;6.10;;
6109;SDS011;3085;49.444;11.054;2024-01-15T03:51:53;19.10;;;6.70;;
6109;SDS011;3085;49.444;11.054;2024-01-15T03:54:20;13.33;;;6.93;;
6109;SDS011;3085;49.444;11.054;2024-01-15T03:56:47;17.10;;;7.43;;
6109;SDS011;3085;49.444;11.054;2024-01-15T03:59:13;15.30;;;6.27;;
6109;SDS011;3085;49.444;11.054;2024-01-15T04:01:40;18.80;;;8.97;;
6109;SDS011;3085;49.444;11.054;2024-01-15T04:04:07;21.53;;;9.60;;
6109;SDS011;3085;49.444;11.054;2024-01-15T04:06:35;15.97;;;7.70;;
6109;SDS011;3085;49.444;11.054;2024-01-15T04:09:01;15.10;;;5.20;;
6109;SDS011;3085;49.444;11.054;2024-01-15T04:11:28;14.53;;;7.60;;
6109;SDS011;3085;49.444;11.054;2024-01-15T04:13:55;23.50;;;8.30;;
6109;SDS011;3085;49.444;11.054;2024-01-15T04:16:21;25.00;;;7.40;;
6109;SDS011;3085;49.444;11.054;2024-01-15T04:18:48;7.97;;;6.00;;
6109;SDS011;3085;49.444;11.054;2024-01-15T04:21:16;10.70;;;7.53;;
6109;SDS011;3085;49.444;11.054;2024-01-15T04:23:44;22.47;;;8.67;;
6109;SDS011;3085;49.444;11.054;2024-01-15T04:26:11;13.43;;;6.00;;
6109;SDS011;3085;49.444;11.054;2024-01-15T04:28:38;25.03;;;8.47;;
6109;SDS011;3085;49.444;11.054;2024-01-15T04:31:05;14.70;;;7.20;;
6109;SDS011;3085;49.444;11.054;2024-01-15T04:33:32;14.40;;;5.77;;
6109;SDS011;3085;49.444;11.054;2024-01-15T04:36:01;22.83;;;7.10;;
6109;SDS011;3085;49.444;11.054;2024-01-15T04:38:28;23.07;;;10.73;;
6109;SDS011;3085;49.444;11.054;2024-01-15T04:40:56;18.00;;;6.83;;
6109;SDS011;3085;49.444;11.054;2024-01-15T04:43:22;23.67;;;8.50;;
6109;SDS011;3085;49.444;11.054;2024-01-15T04:45:49;18.53;;;6.37;;
6109;SDS011;3085;49.444;11.054;2024-01-15T04:48:16;12.93;;;6.23;;
6109;SDS011;3085;49.444;11.054;2024-01-15T04:50:42;20.03;;;8.93;;
6109;SDS011;3085;49.444;11.054;2024-01-15T04:53:09;20.27;;;5.93;;
6109;SDS011;3085;49.444;11.054;2024-01-15T04:55:36;29.97;;;8.93;;
6109;SDS011;3085;49.444;11.054;2024-01-15T04:58:04;18.23;;;7.80;;
6109;SDS011;3085;49.444;11.054;2024-01-15T05:00:31;16.57;;;6.77;;
6109;SDS011;3085;49.444;11.054;2024-01-15T05:02:57;24.63;;;9.90;;
6109;SDS011;3085;49.444;11.054;2024-01-15T05:05:24;21.53;;;6.93;;
6109;SDS011;3085;49.444;11.054;2024-01-15T05:07:51;14.63;;;6.53;;
6109;SDS011;3085;49.444;11.054;2024-01-15T05:10:17;20.67;;;6.50;;
6109;SDS011;3085;49.444;11.054;2024-01-15T05:12:45;26.27;;;8.20;;
6109;SDS011;3085;49.444;11.054;2024-01-15T05:15:13;14.83;;;7.20;;
6109;SDS011;3085;49.444;11.054;2024-01-15T05:17:40;26.23;;;8.47;;
6109;SDS011;3085;49.444;11.054;2024-01-15T05:20:06;16.77;;;7.77;;
6109;SDS011;3085;49.444;11.054;2024-01-15T05:22:34;19.33;;;7.57;;
6109;SDS011;3085;49.444;11.054;2024-01-15T05:25:01;29.20;;;7.70;;
6109;SDS011;3085;49.444;11.054;2024-01-15T05:27:28;16.00;;;6.50;;
6109;SDS011;3085;49.444;11.054;2024-01-15T05:29:55;27.33;;;7.37;;
6109;SDS011;3085;49.444;11.054;2024-01-15T05:32:23;20.67;;;7.53;;
6109;SDS011;3085;49.444;11.054;2024-01-15T05:34:50;12.73;;;7.20;;
6109;SDS011;3085;49.444;11.054;2024-01-15T05:37:16;20.87;;;9.03;;
6109;SDS011;3085;49.444;11.054;2024-01-15T05:39:43;13.37;;;7.17;;
6109;SDS011;3085;49.444;11.054;2024-01-15T05:42:10;12.83;;;6.63;;
6109;SDS011;3085;49.444;11.054;2024-01-15T05:44:36;17.73;;;7.40;;
6109;SDS011;3085;49.444;11.054;2024-01-15T05:47:03;22.87;;;6.40;;
6109;SDS011;3085;49.444;11.054;2024-01-15T05:49:32;12.53;;;6.90;;
6109;SDS011;3085;49.444;11.054;2024-01-15T05:51:58;16.80;;;7.10;;
6109;SDS011;3085;49.444;11.054;2024-01-15T05:54:25;20.37;;;5.90;;
6109;SDS011;3085;49.444;11.054;2024-01-15T05:56:52;18.70;;;8.23;;
6109;SDS011;3085;49.444;11.054;2024-01-15T05:59:18;18.23;;;7.83;;
6109;SDS011;3085;49.444;11.054;2024-01-15T06:01:45;10.37;;;5.33;;
6109;SDS011;3085;49.444;11.054;2024-01-15T06:04:12;13.43;;;6.23;;
6109;SDS011;3085;49.444;11.054;2024-01-15T06:06:40;22.50;;;7.17;;
6109;SDS011;3085;49.444;11.054;2024-01-15T06:09:07;20.30;;;7.23;;
6109;SDS011;3085;49.444;11.054;2024-01-15T06:11:34;20.73;;;7.00;;
6109;SDS011;3085;49.444;11.054;2024-01-15T06:14:00;24.37;;;7.67;;
6109;SDS011;3085;49.444;11.054;2024-01-15T06:16:28;19.37;;;7.80;;
6109;SDS011;3085;49.444;11.054;2024-01-15T06:18:54;14.30;;;6.67;;
6109;SDS011;3085;49.444;11.054;2024-01-15T06:21:21;22.70;;;7.70;;
6109;SDS011;3085;49.444;11.054;2024-01-15T06:23:50;18.70;;;7.27;;
6109;SDS011;3085;49.444;11.054;2024-01-15T06:26:16;24.87;;;6.27;;
6109;SDS011;3085;49.444;11.054;2024-01-15T06:28:43;13.90;;;5.33;;
6109;SDS011;3085;49.444;11.054;2024-01-15T06:31:12;10.73;;;6.10;;
6109;SDS011;3085;49.444;11.054;2024-01-15T06:33:39;16.60;;;5.90;;
6109;SDS011;3085;49.444;11.054;2024-01-15T06:36:06;13.20;;;5.37;;
6109;SDS011;3085;49.444;11.054;2024-01-15T06:38:33;21.93;;;6.40;;
6109;SDS011;3085;49.444;11.054;2024-01-15T06:41:02;8.60;;;5.30;;
6109;SDS011;3085;49.444;11.054;2024-01-15T06:43:29;22.10;;;6.90;;
6109;SDS011;3085;49.444;11.054;2024-01-15T06:45:56;24.67;;;7.60;;
6109;SDS011;3085;49.444;11.054;2024-01-15T06:48:23;14.97;;;7.97;;
6109;SDS011;3085;49.444;11.054;2024-01-15T06:50:49;11.50;;;6.07;;
6109;SDS011;3085;49.444;11.054;2024-01-15T06:53:16;19.13;;;6.70;;
6109;SDS011;3085;49.444;11.054;2024-01-15T06:55:43;12.40;;;6.33;;
6109;SDS011;3085;49.444;11.054;2024-01-15T06:58:12;16.20;;;5.80;;
6109;SDS011;3085;49.444;11.054;2024-01-15T07:00:39;18.00;;;7.93;;
6109;SDS011;3085;49.444;11.054;2024-01-15T07:03:06;12.80;;;5.50;;
6109;SDS011;3085;49.444;11.054;2024-01-15T07:05:33;21.07;;;9.17;;
6109;SDS011;3085;49.444;11.054;2024-01-15T07:08:01;10.73;;;6.27;;
6109;SDS011;3085;49.444;11.054;2024-01-15T07:10:28;11.90;;;5.40;;
6109;SDS011;3085;49.444;11.054;2024-01-15T07:12:55;9.90;;;5.53;;
6109;SDS011;3085;49.444;11.054;2024-01-15T07:15:24;15.33;;;6.73;;
6109;SDS011;3085;49.444;11.054;2024-01-15T07:17:51;18.87;;;7.77;;
6109;SDS011;3085;49.444;11.054;2024-01-15T07:20:17;16.97;;;6.03;;
6109;SDS011;3085;49.444;11.054;2024-01-15T07:22:44;10.87;;;5.07;;
6109;SDS011;3085;49.444;11.054;2024-01-15T07:25:11;16.47;;;6.43;;
6109;SDS011;3085;49.444;11.054;2024-01-15T07:27:39;19.47;;;7.33;;
6109;SDS011;3085;49.444;11.054;2024-01-15T07:30:09;12.87;;;5.27;;
6109;SDS011;3085;49.444;11.054;2024-01-15T07:32:38;15.20;;;6.30;;
6109;SDS011;3085;49.444;11.054;2024-01-15T07:35:05;21.23;;;6.13;;
6109;SDS011;3085;49.444;11.054;2024-01-15T07:37:33;23.10;;;6.57;;
6109;SDS011;3085;49.444;11.054;2024-01-15T07:39:59;10.63;;;5.80;;
6109;SDS011;3085;49.444;11.054;2024-01-15T07:42:26;22.30;;;7.90;;
6109;SDS011;3085;49.444;11.054;2024-01-15T07:44:53;12.00;;;6.80;;
6109;SDS011;3085;49.444;11.054;2024-01-15T07:47:21;9.40;;;5.90;;
6109;SDS011;3085;49.444;11.054;2024-01-15T07:49:49;21.13;;;6.80;;
6109;SDS011;3085;49.444;11.054;2024-01-15T07:52:16;21.20;;;6.17;;
6109;SDS011;3085;49.444;11.054;2024-01-15T07:54:42;19.50;;;7.73;;
6109;SDS011;3085;49.444;11.054;2024-01-15T07:57:09;16.80;;;9.20;;
6109;SDS011;3085;49.444;11.054;2024-01-15T07:59:36;11.80;;;4.80;;
6109;SDS011;3085;49.444;11.054;2024-01-15T08:02:03;13.20;;;6.47;;
6109;SDS011;3085;49.444;11.054;2024-01-15T08:04:30;12.47;;;5.80;;
6109;SDS011;3085;49.444;11.054;2024-01-15T08:06:59;12.73;;;6.20;;
6109;SDS011;3085;49.444;11.054;2024-01-15T08:09:25;12.67;;;5.47;;
6109;SDS011;3085;49.444;11.054;2024-01-15T08:11:52;16.53;;;6.00;;
6109;SDS011;3085;49.444;11.054;2024-01-15T08:14:19;11.83;;;6.10;;
6109;SDS011;3085;49.444;11.054;2024-01-15T08:16:46;10.00;;;4.83;;
6109;SDS011;3085;49.444;11.054;2024-01-15T08:19:13;20.00;;;6.47;;
6109;SDS011;3085;49.444;11.054;2024-01-15T08:21:40;11.27;;;4.90;;
6109;SDS011;3085;49.444;11.054;2024-01-15T08:24:08;18.60;;;6.40;;
6109;SDS011;3085;49.444;11.054;2024-01-15T08:26:35;14.87;;;5.57;;
6109;SDS011;3085;49.444;11.054;2024-01-15T08:29:02;14.53;;;6.93;;
6109;SDS011;3085;49.444;11.054;2024-01-15T08:31:29;10.77;;;6.67;;
6109;SDS011;3085;49.444;11.054;2024-01-15T08:33:55;23.20;;;6.10;;
6109;SDS011;3085;49.444;11.054;2024-01-15T08:36:22;13.67;;;7.63;;
6109;SDS011;3085;49.444;11.054;2024-01-15T08:38:50;7.57;;;5.17;;
6109;SDS011;3085;49.444;11.054;2024-01-15T08:41:18;18.77;;;7.27;;
6109;SDS011;3085;49.444;11.054;2024-01-15T08:43:45;14.37;;;5.70;;
6109;SDS011;3085;49.444;11.054;2024-01-15T08:46:12;17.00;;;5.90;;
6109;SDS011;3085;49.444;11.054;2024-01-15T08:48:39;15.70;;;7.60;;
6109;SDS011;3085;49.444;11.054;2024-01-15T08:51:05;17.30;;;6.97;;
6109;SDS011;3085;49.444;11.054;2024-01-15T08:53:33;10.70;;;4.43;;
6109;SDS011;3085;49.444;11.054;2024-01-15T08:55:59;14.47;;;5.23;;
6109;SDS011;3085;49.444;11.054;2024-01-15T08:58:28;26.60;;;6.77;;
6109;SDS011;3085;49.444;11.054;2024-01-15T09:00:55;23.60;;;8.50;;
6109;SDS011;3085;49.444;11.054;2024-01-15T09:03:22;11.20;;;5.97;;
6109;SDS011;3085;49.444;11.054;2024-01-15T09:05:49;12.50;;;5.83;;
6109;SDS011;3085;49.444;11.054;2024-01-15T09:08:16;11.43;;;6.80;;
6109;SDS011;3085;49.444;11.054;2024-01-15T09:10:43;12.80;;;5.93;;
6109;SDS011;3085;49.444;11.054;2024-01-15T09:13:10;13.93;;;6.03;;
6109;SDS011;3085;49.444;11.054;2024-01-15T09:15:39;9.37;;;5.63;;
6109;SDS011;3085;49.444;11.054;2024-01-15T09:18:06;14.03;;;6.20;;
6109;SDS011;3085;49.444;11.054;2024-01-15T09:20:31;13.87;;;6.90;;
6109;SDS011;3085;49.444;11.054;2024-01-15T09:22:58;21.90;;;7.53;;
6109;SDS011;3085;49.444;11.054;2024-01-15T09:25:25;13.27;;;5.53;;
6109;SDS011;3085;49.444;11.054;2024-01-15T09:27:52;12.40;;;6.97;;
6109;SDS011;3085;49.444;11.054;2024-01-15T09:30:19;15.90;;;6.30;;
6109;SDS011;3085;49.444;11.054;2024-01-15T09:32:47;11.57;;;5.80;;
6109;SDS011;3085;49.444;11.054;2024-01-15T09:35:14;15.20;;;6.00;;
6109;SDS011;3085;49.444;11.054;2024-01-15T09:37:41;21.07;;;7.43;;
6109;SDS011;3085;49.444;11.054;2024-01-15T09:40:09;11.00;;;5.37;;
6109;SDS011;3085;49.444;11.054;2024-01-15T09:42:39;18.63;;;6.10;;
6109;SDS011;3085;49.444;11.054;2024-01-15T09:45:07;15.20;;;5.33;;
6109;SDS011;3085;49.444;11.054;2024-01-15T09:47:35;11.20;;;6.83;;
6109;SDS011;3085;49.444;11.054;2024-01-15T09:50:04;13.77;;;5.97;;
6109;SDS011;3085;49.444;11.054;2024-01-15T09:52:31;11.83;;;7.03;;
6109;SDS011;3085;49.444;11.054;2024-01-15T09:55:01;16.37;;;5.60;;
6109;SDS011;3085;49.444;11.054;2024-01-15T09:57:30;20.73;;;5.70;;
6109;SDS011;3085;49.444;11.054;2024-01-15T09:59:57;16.93;;;6.30;;
6109;SDS011;3085;49.444;11.054;2024-01-15T10:02:29;18.20;;;8.27;;
6109;SDS011;3085;49.444;11.054;2024-01-15T10:04:57;13.30;;;7.00;;
6109;SDS011;3085;49.444;11.054;2024-01-15T10:07:25;9.93;;;5.70;;
6109;SDS011;3085;49.444;11.054;2024-01-15T10:09:53;20.57;;;7.10;;
6109;SDS011;3085;49.444;11.054;2024-01-15T10:12:20;13.77;;;6.40;;
6109;SDS011;3085;49.444;11.054;2024-01-15T10:14:48;15.27;;;5.87;;
6109;SDS011;3085;49.444;11.054;2024-01-15T10:17:16;9.53;;;5.40;;
6109;SDS011;3085;49.444;11.054;2024-01-15T10:19:44;11.67;;;6.33;;
6109;SDS011;3085;49.444;11.054;2024-01-15T10:22:12;12.57;;;6.17;;
6109;SDS011;3085;49.444;11.054;2024-01-15T10:24:42;7.90;;;4.30;;
6109;SDS011;3085;49.444;11.054;2024-01-15T10:27:09;12.53;;;4.60;;
6109;SDS011;3085;49.444;11.054;2024-01-15T10:29:37;11.47;;;5.87;;
6109;SDS011;3085;49.444;11.054;2024-01-15T10:32:06;10.90;;;4.83;;
6109;SDS011;3085;49.444;11.054;2024-01-15T10:34:33;22.93;;;6.80;;
6109;SDS011;3085;49.444;11.054;2024-01-15T10:37:03;8.87;;;5.40;;
6109;SDS011;3085;49.444;11.054;2024-01-15T10:39:30;15.37;;;6.37;;
6109;SDS011;3085;49.444;11.054;2024-01-15T10:41:59;17.40;;;5.50;;
6109;SDS011;3085;49.444;11.054;2024-01-15T10:44:26;10.00;;;5.50;;
6109;SDS011;3085;49.444;11.054;2024-01-15T10:46:52;16.83;;;4.43;;
6109;SDS011;3085;49.444;11.054;2024-01-15T10:49:21;9.73;;;4.47;;
6109;SDS011;3085;49.444;11.054;2024-01-15T10:51:51;8.00;;;5.33;;
6109;SDS011;3085;49.444;11.054;2024-01-15T10:54:19;11.37;;;5.40;;
6109;SDS011;3085;49.444;11.054;2024-01-15T10:56:48;11.43;;;5.67;;
6109;SDS011;3085;49.444;11.054;2024-01-15T10:59:17;13.43;;;5.57;;
6109;SDS011;3085;49.444;11.054;2024-01-15T11:01:46;11.40;;;5.40;;
6109;SDS011;3085;49.444;11.054;2024-01-15T11:04:14;16.07;;;5.67;;
6109;SDS011;3085;49.444;11.054;2024-01-15T11:06:42;12.40;;;5.73;;
6109;SDS011;3085;49.444;11.054;2024-01-15T11:09:09;10.67;;;5.10;;
6109;SDS011;3085;49.444;11.054;2024-01-15T11:11:39;16.00;;;6.10;;
6109;SDS011;3085;49.444;11.054;2024-01-15T11:14:07;8.10;;;4.70;;
6109;SDS011;3085;49.444;11.054;2024-01-15T11:19:22;10.47;;;5.30;;
6109;SDS011;3085;49.444;11.054;2024-01-15T11:21:49;7.37;;;4.67;;
6109;SDS011;3085;49.444;11.054;2024-01-15T11:24:37;12.40;;;5.53;;
6109;SDS011;3085;49.444;11.054;2024-01-15T11:27:05;11.87;;;5.33;;
6109;SDS011;3085;49.444;11.054;2024-01-15T11:29:33;17.40;;;4.90;;
6109;SDS011;3085;49.444;11.054;2024-01-15T11:32:03;14.07;;;5.57;;
6109;SDS011;3085;49.444;11.054;2024-01-15T11:37:15;12.10;;;5.87;;
6109;SDS011;3085;49.444;11.054;2024-01-15T11:39:42;10.90;;;5.70;;
6109;SDS011;3085;49.444;11.054;2024-01-15T11:42:10;14.70;;;5.83;;
6109;SDS011;3085;49.444;11.054;2024-01-15T11:44:37;12.77;;;5.13;;
6109;SDS011;3085;49.444;11.054;2024-01-15T11:47:06;11.07;;;5.23;;
6109;SDS011;3085;49.444;11.054;2024-01-15T11:49:42;9.87;;;5.20;;
6109;SDS011;3085;49.444;11.054;2024-01-15T11:52:26;8.73;;;5.23;;
6109;SDS011;3085;49.444;11.054;2024-01-15T11:54:59;20.03;;;5.03;;
6109;SDS011;3085;49.444;11.054;2024-01-15T11:57:30;7.37;;;5.27;;
6109;SDS011;3085;49.444;11.054;2024-01-15T12:00:03;13.80;;;4.90;;
6109;SDS011;3085;49.444;11.054;2024-01-15T12:02:33;6.53;;;4.30;;
6109;SDS011;3085;49.444;11.054;2024-01-15T12:05:00;10.37;;;4.90;;
6109;SDS011;3085;49.444;11.054;2024-01-15T12:07:27;15.63;;;5.87;;
6109;SDS011;3085;49.444;11.054;2024-01-15T12:09:54;10.83;;;4.77;;
6109;SDS011;3085;49.444;11.054;2024-01-15T12:12:23;11.37;;;4.87;;
6109;SDS011;3085;49.444;11.054;2024-01-15T12:14:54;10.20;;;6.10;;
6109;SDS011;3085;49.444;11.054;2024-01-15T12:17:21;10.70;;;4.93;;
6109;SDS011;3085;49.444;11.054;2024-01-15T12:19:50;14.43;;;5.77;;
6109;SDS011;3085;49.444;11.054;2024-01-15T12:22:17;12.40;;;5.27;;
6109;SDS011;3085;49.444;11.054;2024-01-15T12:24:44;8.50;;;4.73;;
6109;SDS011;3085;49.444;11.054;2024-01-15T12:27:11;8.67;;;5.50;;
6109;SDS011;3085;49.444;11.054;2024-01-15T12:29:38;10.20;;;5.53;;
6109;SDS011;3085;49.444;11.054;2024-01-15T12:32:05;8.77;;;4.60;;
6109;SDS011;3085;49.444;11.054;2024-01-15T12:34:33;6.83;;;4.43;;
6109;SDS011;3085;49.444;11.054;2024-01-15T12:37:01;8.27;;;4.43;;
6109;SDS011;3085;49.444;11.054;2024-01-15T12:39:28;8.77;;;4.40;;
6109;SDS011;3085;49.444;11.054;2024-01-15T12:41:55;6.70;;;4.33;;
6109;SDS011;3085;49.444;11.054;2024-01-15T12:44:22;13.90;;;4.60;;
6109;SDS011;3085;49.444;11.054;2024-01-15T12:46:49;14.43;;;5.83;;
6109;SDS011;3085;49.444;11.054;2024-01-15T12:49:17;7.80;;;5.20;;
6109;SDS011;3085;49.444;11.054;2024-01-15T12:51:44;13.60;;;7.17;;
6109;SDS011;3085;49.444;11.054;2024-01-15T12:54:20;14.93;;;5.73;;
6109;SDS011;3085;49.444;11.054;2024-01-15T12:56:47;10.70;;;4.73;;
6109;SDS011;3085;49.444;11.054;2024-01-15T12:59:17;8.60;;;4.17;;
6109;SDS011;3085;49.444;11.054;2024-01-15T13:01:44;9.80;;;4.47;;
6109;SDS011;3085;49.444;11.054;2024-01-15T13:04:11;13.03;;;5.27;;
6109;SDS011;3085;49.444;11.054;2024-01-15T13:06:47;9.63;;;4.60;;
6109;SDS011;3085;49.444;11.054;2024-01-15T13:09:15;8.47;;;4.80;;
6109;SDS011;3085;49.444;11.054;2024-01-15T13:11:43;7.80;;;3.70;;
6109;SDS011;3085;49.444;11.054;2024-01-15T13:14:11;11.00;;;5.37;;
6109;SDS011;3085;49.444;11.054;2024-01-15T13:16:38;11.20;;;4.90;;
6109;SDS011;3085;49.444;11.054;2024-01-15T13:19:06;15.87;;;5.57;;
6109;SDS011;3085;49.444;11.054;2024-01-15T13:21:34;9.07;;;5.33;;
6109;SDS011;3085;49.444;11.054;2024-01-15T13:24:01;5.43;;;3.67;;
6109;SDS011;3085;49.444;11.054;2024-01-15T13:26:30;7.07;;;4.03;;
6109;SDS011;3085;49.444;11.054;2024-01-15T13:28:59;14.57;;;4.43;;
6109;SDS011;3085;49.444;11.054;2024-01-15T13:31:26;13.87;;;5.83;;
6109;SDS011;3085;49.444;11.054;2024-01-15T13:33:53;15.73;;;5.73;;
6109;SDS011;3085;49.444;11.054;2024-01-15T13:36:20;7.40;;;4.00;;
6109;SDS011;3085;49.444;11.054;2024-01-15T13:38:48;9.63;;;5.03;;
6109;SDS011;3085;49.444;11.054;2024-01-15T13:41:15;9.13;;;4.87;;
6109;SDS011;3085;49.444;11.054;2024-01-15T13:43:43;8.43;;;4.73;;
6109;SDS011;3085;49.444;11.054;2024-01-15T13:46:12;10.10;;;5.20;;
6109;SDS011;3085;49.444;11.054;2024-01-15T13:48:39;8.60;;;4.93;;
6109;SDS011;3085;49.444;11.054;2024-01-15T13:51:06;9.63;;;4.27;;
6109;SDS011;3085;49.444;11.054;2024-01-15T13:53:33;13.37;;;5.10;;
6109;SDS011;3085;49.444;11.054;2024-01-15T13:56:00;8.10;;;4.60;;
6109;SDS011;3085;49.444;11.054;2024-01-15T13:58:27;7.83;;;3.80;;
6109;SDS011;3085;49.444;11.054;2024-01-15T14:00:54;8.50;;;4.00;;
6109;SDS011;3085;49.444;11.054;2024-01-15T14:03:22;9.03;;;3.70;;
6109;SDS011;3085;49.444;11.054;2024-01-15T14:05:50;6.17;;;4.03;;
6109;SDS011;3085;49.444;11.054;2024-01-15T14:08:17;9.60;;;4.63;;
6109;SDS011;3085;49.444;11.054;2024-01-15T14:10:44;6.70;;;4.00;;
6109;SDS011;3085;49.444;11.054;2024-01-15T14:13:11;7.07;;;3.80;;
6109;SDS011;3085;49.444;11.054;2024-01-15T14:15:37;10.30;;;4.27;;
6109;SDS011;3085;49.444;11.054;2024-01-15T14:18:05;7.10;;;4.27;;
6109;SDS011;3085;49.444;11.054;2024-01-15T14:20:33;10.07;;;5.00;;
6109;SDS011;3085;49.444;11.054;2024-01-15T14:23:00;10.10;;;4.77;;
6109;SDS011;3085;49.444;11.054;2024-01-15T14:25:27;5.17;;;3.53;;
6109;SDS011;3085;49.444;11.054;2024-01-15T14:27:54;6.30;;;4.17;;
6109;SDS011;3085;49.444;11.054;2024-01-15T14:30:21;10.20;;;4.20;;
6109;SDS011;3085;49.444;11.054;2024-01-15T14:32:48;6.63;;;4.00;;
6109;SDS011;3085;49.444;11.054;2024-01-15T14:35:15;13.23;;;4.20;;
6109;SDS011;3085;49.444;11.054;2024-01-15T14:37:43;10.07;;;5.30;;
6109;SDS011;3085;49.444;11.054;2024-01-15T14:40:10;6.10;;;3.67;;
6109;SDS011;3085;49.444;11.054;2024-01-15T14:42:37;7.97;;;4.47;;
6109;SDS011;3085;49.444;11.054;2024-01-15T14:45:04;5.97;;;3.83;;
6109;SDS011;3085;49.444;11.054;2024-01-15T14:47:36;12.20;;;6.40;;
6109;SDS011;3085;49.444;11.054;2024-01-15T14:50:04;11.17;;;5.03;;
6109;SDS011;3085;49.444;11.054;2024-01-15T14:52:32;14.20;;;5.90;;
6109;SDS011;3085;49.444;11.054;2024-01-15T14:55:00;6.90;;;4.27;;